sensor_id;sensor_type;location;lat;lon;timestamp;temperature;humidity
6758;DHT22;3416;53.074;8.822;2024-01-30T00:00:33;6.40;99.90
6758;DHT22;3416;53.074;8.822;2024-01-30T00:03:00;6.30;99.90
6758;DHT22;3416;53.074;8.822;2024-01-30T00:05:28;6.20;99.90
6758;DHT22;3416;53.074;8.822;2024-01-30T00:07:55;6.20;99.90
6758;DHT22;3416;53.074;8.822;2024-01-30T00:10:22;6.30;99.90
6758;DHT22;3416;53.074;8.822;2024-01-30T00:12:49;6.20;99.90
6758;DHT22;3416;53.074;8.822;2024-01-30T00:15:16;6.10;99.90
6758;DHT22;3416;53.074;8.822;2024-01-30T00:17:45;6.10;99.90
6758;DHT22;3416;53.074;8.822;2024-01-30T00:20:12;6.10;99.90
6758;DHT22;3416;53.074;8.822;2024-01-30T00:22:40;6.10;99.90
6758;DHT22;3416;53.074;8.822;2024-01-30T00:25:08;6.10;99.90
6758;DHT22;3416;53.074;8.822;2024-01-30T00:27:35;6.10;99.90
6758;DHT22;3416;53.074;8.822;2024-01-30T00:30:02;6.10;99.90
6758;DHT22;3416;53.074;8.822;2024-01-30T00:32:30;6.00;99.90
6758;DHT22;3416;53.074;8.822;2024-01-30T00:34:57;6.00;99.90
6758;DHT22;3416;53.074;8.822;2024-01-30T00:37:25;5.90;99.90
6758;DHT22;3416;53.074;8.822;2024-01-30T00:39:53;5.90;99.90
6758;DHT22;3416;53.074;8.822;2024-01-30T00:42:20;6.00;99.90
6758;DHT22;3416;53.074;8.822;2024-01-30T00:44:49;6.00;99.90
6758;DHT22;3416;53.074;8.822;2024-01-30T00:47:16;5.90;99.90
6758;DHT22;3416;53.074;8.822;2024-01-30T00:49:43;5.90;99.90
6758;DHT22;3416;53.074;8.822;2024-01-30T00:52:10;5.90;99.90
6758;DHT22;3416;53.074;8.822;2024-01-30T00:54:37;5.90;99.90
6758;DHT22;3416;53.074;8.822;2024-01-30T00:57:05;5.90;99.90
6758;DHT22;3416;53.074;8.822;2024-01-30T00:59:32;5.90;99.90
6758;DHT22;3416;53.074;8.822;2024-01-30T01:01:59;5.80;99.90
6758;DHT22;3416;53.074;8.822;2024-01-30T01:04:26;5.80;99.90
6758;DHT22;3416;53.074;8.822;2024-01-30T01:06:53;5.80;99.90
6758;DHT22;3416;53.074;8.822;2024-01-30T01:09:20;5.80;99.90
6758;DHT22;3416;53.074;8.822;2024-01-30T01:11:47;5.70;99.90
6758;DHT22;3416;53.074;8.822;2024-01-30T01:14:16;5.80;99.90
6758;DHT22;3416;53.074;8.822;2024-01-30T01:16:43;5.80;99.90
6758;DHT22;3416;53.074;8.822;2024-01-30T01:19:10;5.80;99.90
6758;DHT22;3416;53.074;8.822;2024-01-30T01:21:37;5.80;99.90
6758;DHT22;3416;53.074;8.822;2024-01-30T01:24:04;5.80;99.90
6758;DHT22;3416;53.074;8.822;2024-01-30T01:26:37;5.80;99.90
6758;DHT22;3416;53.074;8.822;2024-01-30T01:29:04;5.80;99.90
6758;DHT22;3416;53.074;8.822;2024-01-30T01:31:36;5.80;99.90
6758;DHT22;3416;53.074;8.822;2024-01-30T01:34:09;5.80;99.90
6758;DHT22;3416;53.074;8.822;2024-01-30T01:36:36;5.80;99.90
6758;DHT22;3416;53.074;8.822;2024-01-30T01:39:03;5.70;99.90
6758;DHT22;3416;53.074;8.822;2024-01-30T01:41:30;5.70;99.90
6758;DHT22;3416;53.074;8.822;2024-01-30T01:43:57;5.70;99.90
6758;DHT22;3416;53.074;8.822;2024-01-30T01:46:27;5.70;99.90
6758;DHT22;3416;53.074;8.822;2024-01-30T01:48:55;5.80;99.90
6758;DHT22;3416;53.074;8.822;2024-01-30T01:51:25;5.80;99.90
6758;DHT22;3416;53.074;8.822;2024-01-30T01:53:53;5.80;99.90
6758;DHT22;3416;53.074;8.822;2024-01-30T01:56:22;5.70;99.90
6758;DHT22;3416;53.074;8.822;2024-01-30T01:58:50;5.90;99.90
6758;DHT22;3416;53.074;8.822;2024-01-30T02:01:19;6.00;99.90
6758;DHT22;3416;53.074;8.822;2024-01-30T02:03:46;6.00;99.90
6758;DHT22;3416;53.074;8.822;2024-01-30T02:06:16;6.10;99.90
6758;DHT22;3416;53.074;8.822;2024-01-30T02:08:43;6.20;99.90
6758;DHT22;3416;53.074;8.822;2024-01-30T02:11:10;6.20;99.90
6758;DHT22;3416;53.074;8.822;2024-01-30T02:13:38;6.30;99.90
6758;DHT22;3416;53.074;8.822;2024-01-30T02:16:05;6.30;99.90
6758;DHT22;3416;53.074;8.822;2024-01-30T02:18:34;6.30;99.90
6758;DHT22;3416;53.074;8.822;2024-01-30T02:21:05;6.40;99.90
6758;DHT22;3416;53.074;8.822;2024-01-30T02:23:33;6.50;99.90
6758;DHT22;3416;53.074;8.822;2024-01-30T02:26:00;6.50;99.90
6758;DHT22;3416;53.074;8.822;2024-01-30T02:28:27;6.50;99.90
6758;DHT22;3416;53.074;8.822;2024-01-30T02:30:54;6.50;99.90
6758;DHT22;3416;53.074;8.822;2024-01-30T02:33:21;6.50;99.90
6758;DHT22;3416;53.074;8.822;2024-01-30T02:35:48;6.60;99.90
6758;DHT22;3416;53.074;8.822;2024-01-30T02:38:18;6.60;99.90
6758;DHT22;3416;53.074;8.822;2024-01-30T02:40:46;6.60;99.90
6758;DHT22;3416;53.074;8.822;2024-01-30T02:43:13;6.50;99.90
6758;DHT22;3416;53.074;8.822;2024-01-30T02:45:40;6.40;99.90
6758;DHT22;3416;53.074;8.822;2024-01-30T02:48:07;6.30;99.90
6758;DHT22;3416;53.074;8.822;2024-01-30T02:50:35;6.20;99.90
6758;DHT22;3416;53.074;8.822;2024-01-30T02:53:02;6.10;99.90
6758;DHT22;3416;53.074;8.822;2024-01-30T02:55:31;6.10;99.90
6758;DHT22;3416;53.074;8.822;2024-01-30T02:57:58;6.10;99.90
6758;DHT22;3416;53.074;8.822;2024-01-30T03:00:25;6.10;99.90
6758;DHT22;3416;53.074;8.822;2024-01-30T03:02:52;6.10;99.90
6758;DHT22;3416;53.074;8.822;2024-01-30T03:05:20;6.10;99.90
6758;DHT22;3416;53.074;8.822;2024-01-30T03:07:47;6.10;99.90
6758;DHT22;3416;53.074;8.822;2024-01-30T03:10:14;6.20;99.90
6758;DHT22;3416;53.074;8.822;2024-01-30T03:12:43;6.20;99.90
6758;DHT22;3416;53.074;8.822;2024-01-30T03:15:10;6.10;99.90
6758;DHT22;3416;53.074;8.822;2024-01-30T03:17:38;6.10;99.90
6758;DHT22;3416;53.074;8.822;2024-01-30T03:20:06;6.20;99.90
6758;DHT22;3416;53.074;8.822;2024-01-30T03:22:33;6.20;99.90
6758;DHT22;3416;53.074;8.822;2024-01-30T03:25:00;6.30;99.90
6758;DHT22;3416;53.074;8.822;2024-01-30T03:27:27;6.20;99.90
6758;DHT22;3416;53.074;8.822;2024-01-30T03:29:55;6.10;99.90
6758;DHT22;3416;53.074;8.822;2024-01-30T03:32:22;6.20;99.90
6758;DHT22;3416;53.074;8.822;2024-01-30T03:34:49;6.20;99.90
6758;DHT22;3416;53.074;8.822;2024-01-30T03:37:16;6.20;99.90
6758;DHT22;3416;53.074;8.822;2024-01-30T03:39:43;6.20;99.90
6758;DHT22;3416;53.074;8.822;2024-01-30T03:42:11;6.20;99.90
6758;DHT22;3416;53.074;8.822;2024-01-30T03:44:40;6.20;99.90
6758;DHT22;3416;53.074;8.822;2024-01-30T03:47:08;6.20;99.90
6758;DHT22;3416;53.074;8.822;2024-01-30T03:49:35;6.20;99.90
6758;DHT22;3416;53.074;8.822;2024-01-30T03:52:02;6.30;99.90
6758;DHT22;3416;53.074;8.822;2024-01-30T03:54:29;6.40;99.90
6758;DHT22;3416;53.074;8.822;2024-01-30T03:56:56;6.40;99.90
6758;DHT22;3416;53.074;8.822;2024-01-30T03:59:23;6.40;99.90
6758;DHT22;3416;53.074;8.822;2024-01-30T04:01:50;6.30;99.90
6758;DHT22;3416;53.074;8.822;2024-01-30T04:04:19;6.30;99.90
6758;DHT22;3416;53.074;8.822;2024-01-30T04:06:46;6.30;99.90
6758;DHT22;3416;53.074;8.822;2024-01-30T04:09:13;6.20;99.90
6758;DHT22;3416;53.074;8.822;2024-01-30T04:11:40;6.20;99.90
6758;DHT22;3416;53.074;8.822;2024-01-30T04:14:07;6.20;99.90
6758;DHT22;3416;53.074;8.822;2024-01-30T04:16:34;6.30;99.90
6758;DHT22;3416;53.074;8.822;2024-01-30T04:19:01;6.30;99.90
6758;DHT22;3416;53.074;8.822;2024-01-30T04:21:30;6.30;99.90
6758;DHT22;3416;53.074;8.822;2024-01-30T04:23:57;6.20;99.90
6758;DHT22;3416;53.074;8.822;2024-01-30T04:26:24;6.20;99.90
6758;DHT22;3416;53.074;8.822;2024-01-30T04:28:51;6.20;99.90
6758;DHT22;3416;53.074;8.822;2024-01-30T04:31:18;6.20;99.90
6758;DHT22;3416;53.074;8.822;2024-01-30T04:33:45;6.20;99.90
6758;DHT22;3416;53.074;8.822;2024-01-30T04:36:12;6.20;99.90
6758;DHT22;3416;53.074;8.822;2024-01-30T04:38:40;6.10;99.90
6758;DHT22;3416;53.074;8.822;2024-01-30T04:41:07;6.20;99.90
6758;DHT22;3416;53.074;8.822;2024-01-30T04:43:34;6.20;99.90
6758;DHT22;3416;53.074;8.822;2024-01-30T04:46:01;6.30;99.90
6758;DHT22;3416;53.074;8.822;2024-01-30T04:48:29;6.30;99.90
6758;DHT22;3416;53.074;8.822;2024-01-30T04:50:56;6.30;99.90
6758;DHT22;3416;53.074;8.822;2024-01-30T04:53:23;6.30;99.90
6758;DHT22;3416;53.074;8.822;2024-01-30T04:55:51;6.30;99.90
6758;DHT22;3416;53.074;8.822;2024-01-30T04:58:18;6.30;99.90
6758;DHT22;3416;53.074;8.822;2024-01-30T05:00:45;6.40;99.90
6758;DHT22;3416;53.074;8.822;2024-01-30T05:03:17;6.40;99.90
6758;DHT22;3416;53.074;8.822;2024-01-30T05:05:44;6.30;99.90
6758;DHT22;3416;53.074;8.822;2024-01-30T05:08:11;6.40;99.90
6758;DHT22;3416;53.074;8.822;2024-01-30T05:10:38;6.30;99.90
6758;DHT22;3416;53.074;8.822;2024-01-30T05:13:06;6.30;99.90
6758;DHT22;3416;53.074;8.822;2024-01-30T05:15:34;6.30;99.90
6758;DHT22;3416;53.074;8.822;2024-01-30T05:18:01;6.30;99.90
6758;DHT22;3416;53.074;8.822;2024-01-30T05:20:28;6.30;99.90
6758;DHT22;3416;53.074;8.822;2024-01-30T05:22:55;6.30;99.90
6758;DHT22;3416;53.074;8.822;2024-01-30T05:25:22;6.30;99.90
6758;DHT22;3416;53.074;8.822;2024-01-30T05:27:50;6.30;99.90
6758;DHT22;3416;53.074;8.822;2024-01-30T05:30:18;6.30;99.90
6758;DHT22;3416;53.074;8.822;2024-01-30T05:32:45;6.30;99.90
6758;DHT22;3416;53.074;8.822;2024-01-30T05:35:12;6.20;99.90
6758;DHT22;3416;53.074;8.822;2024-01-30T05:37:39;6.20;99.90
6758;DHT22;3416;53.074;8.822;2024-01-30T05:40:07;6.20;99.90
6758;DHT22;3416;53.074;8.822;2024-01-30T05:42:35;6.20;99.90
6758;DHT22;3416;53.074;8.822;2024-01-30T05:45:03;6.10;99.90
6758;DHT22;3416;53.074;8.822;2024-01-30T05:47:32;6.10;99.90
6758;DHT22;3416;53.074;8.822;2024-01-30T05:49:59;6.20;99.90
6758;DHT22;3416;53.074;8.822;2024-01-30T05:52:26;6.10;99.90
6758;DHT22;3416;53.074;8.822;2024-01-30T05:54:54;6.10;99.90
6758;DHT22;3416;53.074;8.822;2024-01-30T05:57:21;6.10;99.90
6758;DHT22;3416;53.074;8.822;2024-01-30T05:59:48;6.10;99.90
6758;DHT22;3416;53.074;8.822;2024-01-30T06:02:17;6.10;99.90
6758;DHT22;3416;53.074;8.822;2024-01-30T06:04:45;6.10;99.90
6758;DHT22;3416;53.074;8.822;2024-01-30T06:07:12;6.20;99.90
6758;DHT22;3416;53.074;8.822;2024-01-30T06:09:39;6.20;99.90
6758;DHT22;3416;53.074;8.822;2024-01-30T06:12:07;6.20;99.90
6758;DHT22;3416;53.074;8.822;2024-01-30T06:14:34;6.20;99.90
6758;DHT22;3416;53.074;8.822;2024-01-30T06:17:01;6.20;99.90
6758;DHT22;3416;53.074;8.822;2024-01-30T06:19:28;6.30;99.90
6758;DHT22;3416;53.074;8.822;2024-01-30T06:21:59;6.30;99.90
6758;DHT22;3416;53.074;8.822;2024-01-30T06:24:26;6.30;99.90
6758;DHT22;3416;53.074;8.822;2024-01-30T06:26:53;6.30;99.90
6758;DHT22;3416;53.074;8.822;2024-01-30T06:29:20;6.30;99.90
6758;DHT22;3416;53.074;8.822;2024-01-30T06:31:47;6.40;99.90
6758;DHT22;3416;53.074;8.822;2024-01-30T06:34:14;6.40;99.90
6758;DHT22;3416;53.074;8.822;2024-01-30T06:36:41;6.40;99.90
6758;DHT22;3416;53.074;8.822;2024-01-30T06:39:10;6.50;99.90
6758;DHT22;3416;53.074;8.822;2024-01-30T06:41:37;6.60;99.90
6758;DHT22;3416;53.074;8.822;2024-01-30T06:44:04;6.50;99.90
6758;DHT22;3416;53.074;8.822;2024-01-30T06:46:32;6.40;99.90
6758;DHT22;3416;53.074;8.822;2024-01-30T06:48:59;6.50;99.90
6758;DHT22;3416;53.074;8.822;2024-01-30T06:51:26;6.40;99.90
6758;DHT22;3416;53.074;8.822;2024-01-30T06:53:53;6.50;99.90
6758;DHT22;3416;53.074;8.822;2024-01-30T06:56:23;6.50;99.90
6758;DHT22;3416;53.074;8.822;2024-01-30T06:58:50;6.40;99.90
6758;DHT22;3416;53.074;8.822;2024-01-30T07:01:18;6.50;99.90
6758;DHT22;3416;53.074;8.822;2024-01-30T07:03:45;6.40;99.90
6758;DHT22;3416;53.074;8.822;2024-01-30T07:06:11;6.40;99.90
6758;DHT22;3416;53.074;8.822;2024-01-30T07:08:38;6.50;99.90
6758;DHT22;3416;53.074;8.822;2024-01-30T07:11:06;6.40;99.90
6758;DHT22;3416;53.074;8.822;2024-01-30T07:13:34;6.40;99.90
6758;DHT22;3416;53.074;8.822;2024-01-30T07:16:04;6.40;99.90
6758;DHT22;3416;53.074;8.822;2024-01-30T07:18:31;6.40;99.90
6758;DHT22;3416;53.074;8.822;2024-01-30T07:20:58;6.50;99.90
6758;DHT22;3416;53.074;8.822;2024-01-30T07:23:25;6.50;99.90
6758;DHT22;3416;53.074;8.822;2024-01-30T07:25:53;6.40;99.90
6758;DHT22;3416;53.074;8.822;2024-01-30T07:28:19;6.50;99.90
6758;DHT22;3416;53.074;8.822;2024-01-30T07:30:48;6.50;99.90
6758;DHT22;3416;53.074;8.822;2024-01-30T07:33:16;6.50;99.90
6758;DHT22;3416;53.074;8.822;2024-01-30T07:35:43;6.50;99.90
6758;DHT22;3416;53.074;8.822;2024-01-30T07:38:12;6.60;99.90
6758;DHT22;3416;53.074;8.822;2024-01-30T07:40:39;6.60;99.90
6758;DHT22;3416;53.074;8.822;2024-01-30T07:43:06;6.70;99.90
6758;DHT22;3416;53.074;8.822;2024-01-30T07:45:33;6.70;99.90
6758;DHT22;3416;53.074;8.822;2024-01-30T07:48:02;6.70;99.90
6758;DHT22;3416;53.074;8.822;2024-01-30T07:50:29;6.70;99.90
6758;DHT22;3416;53.074;8.822;2024-01-30T07:52:59;6.80;99.90
6758;DHT22;3416;53.074;8.822;2024-01-30T07:55:27;6.80;99.90
6758;DHT22;3416;53.074;8.822;2024-01-30T07:57:54;6.80;99.90
6758;DHT22;3416;53.074;8.822;2024-01-30T08:00:22;6.90;99.90
6758;DHT22;3416;53.074;8.822;2024-01-30T08:02:49;7.00;99.90
6758;DHT22;3416;53.074;8.822;2024-01-30T08:05:17;7.10;99.90
6758;DHT22;3416;53.074;8.822;2024-01-30T08:07:44;7.20;99.90
6758;DHT22;3416;53.074;8.822;2024-01-30T08:10:12;7.20;99.90
6758;DHT22;3416;53.074;8.822;2024-01-30T08:12:39;7.20;99.90
6758;DHT22;3416;53.074;8.822;2024-01-30T08:15:06;7.40;99.90
6758;DHT22;3416;53.074;8.822;2024-01-30T08:17:34;7.50;99.90
6758;DHT22;3416;53.074;8.822;2024-01-30T08:20:01;7.50;99.90
6758;DHT22;3416;53.074;8.822;2024-01-30T08:22:31;7.60;99.90
6758;DHT22;3416;53.074;8.822;2024-01-30T08:24:58;7.60;99.90
6758;DHT22;3416;53.074;8.822;2024-01-30T08:27:25;7.70;99.90
6758;DHT22;3416;53.074;8.822;2024-01-30T08:29:52;7.80;99.90
6758;DHT22;3416;53.074;8.822;2024-01-30T08:32:20;7.70;99.90
6758;DHT22;3416;53.074;8.822;2024-01-30T08:34:47;7.80;99.90
6758;DHT22;3416;53.074;8.822;2024-01-30T08:37:14;7.90;99.90
6758;DHT22;3416;53.074;8.822;2024-01-30T08:39:44;8.10;99.90
6758;DHT22;3416;53.074;8.822;2024-01-30T08:42:11;8.10;99.90
6758;DHT22;3416;53.074;8.822;2024-01-30T08:44:38;8.30;99.90
6758;DHT22;3416;53.074;8.822;2024-01-30T08:47:05;8.60;99.90
6758;DHT22;3416;53.074;8.822;2024-01-30T08:49:32;8.70;99.90
6758;DHT22;3416;53.074;8.822;2024-01-30T08:51:59;8.80;99.90
6758;DHT22;3416;53.074;8.822;2024-01-30T08:54:26;8.80;99.90
6758;DHT22;3416;53.074;8.822;2024-01-30T08:56:55;8.80;99.90
6758;DHT22;3416;53.074;8.822;2024-01-30T08:59:23;8.80;99.90
6758;DHT22;3416;53.074;8.822;2024-01-30T09:01:50;8.80;99.90
6758;DHT22;3416;53.074;8.822;2024-01-30T09:04:20;9.00;99.90
6758;DHT22;3416;53.074;8.822;2024-01-30T09:06:48;8.90;99.90
6758;DHT22;3416;53.074;8.822;2024-01-30T09:09:15;9.10;99.90
6758;DHT22;3416;53.074;8.822;2024-01-30T09:11:43;9.10;99.90
6758;DHT22;3416;53.074;8.822;2024-01-30T09:14:12;9.10;99.90
6758;DHT22;3416;53.074;8.822;2024-01-30T09:16:40;9.20;99.90
6758;DHT22;3416;53.074;8.822;2024-01-30T09:19:07;9.40;99.90
6758;DHT22;3416;53.074;8.822;2024-01-30T09:21:34;9.50;99.90
6758;DHT22;3416;53.074;8.822;2024-01-30T09:24:02;9.50;99.90
6758;DHT22;3416;53.074;8.822;2024-01-30T09:26:30;9.60;99.90
6758;DHT22;3416;53.074;8.822;2024-01-30T09:28:57;9.50;99.90
6758;DHT22;3416;53.074;8.822;2024-01-30T09:31:26;9.40;99.90
6758;DHT22;3416;53.074;8.822;2024-01-30T09:33:54;9.50;99.90
6758;DHT22;3416;53.074;8.822;2024-01-30T09:36:21;9.70;99.90
6758;DHT22;3416;53.074;8.822;2024-01-30T09:38:48;9.60;99.90
6758;DHT22;3416;53.074;8.822;2024-01-30T09:41:16;9.70;99.90
6758;DHT22;3416;53.074;8.822;2024-01-30T09:43:47;9.80;99.90
6758;DHT22;3416;53.074;8.822;2024-01-30T09:46:17;9.90;99.90
6758;DHT22;3416;53.074;8.822;2024-01-30T09:48:46;10.20;99.90
6758;DHT22;3416;53.074;8.822;2024-01-30T09:51:14;10.30;99.90
6758;DHT22;3416;53.074;8.822;2024-01-30T09:53:42;10.30;99.90
6758;DHT22;3416;53.074;8.822;2024-01-30T09:56:10;10.10;99.90
6758;DHT22;3416;53.074;8.822;2024-01-30T09:58:39;10.30;99.90
6758;DHT22;3416;53.074;8.822;2024-01-30T10:01:06;10.40;99.90
6758;DHT22;3416;53.074;8.822;2024-01-30T10:03:33;10.40;99.90
6758;DHT22;3416;53.074;8.822;2024-01-30T10:06:02;10.50;99.90
6758;DHT22;3416;53.074;8.822;2024-01-30T10:08:29;10.60;99.90
6758;DHT22;3416;53.074;8.822;2024-01-30T10:10:57;10.70;99.90
6758;DHT22;3416;53.074;8.822;2024-01-30T10:13:25;10.90;99.90
6758;DHT22;3416;53.074;8.822;2024-01-30T10:15:53;10.90;99.90
6758;DHT22;3416;53.074;8.822;2024-01-30T10:18:22;10.90;99.90
6758;DHT22;3416;53.074;8.822;2024-01-30T10:20:49;11.00;99.90
6758;DHT22;3416;53.074;8.822;2024-01-30T10:23:17;11.00;99.90
6758;DHT22;3416;53.074;8.822;2024-01-30T10:25:45;11.20;99.90
6758;DHT22;3416;53.074;8.822;2024-01-30T10:28:12;11.20;99.90
6758;DHT22;3416;53.074;8.822;2024-01-30T10:30:39;11.20;99.90
6758;DHT22;3416;53.074;8.822;2024-01-30T10:33:06;11.20;99.90
6758;DHT22;3416;53.074;8.822;2024-01-30T10:35:33;11.10;99.90
6758;DHT22;3416;53.074;8.822;2024-01-30T10:38:00;11.10;99.90
6758;DHT22;3416;53.074;8.822;2024-01-30T10:40:30;11.20;99.90
6758;DHT22;3416;53.074;8.822;2024-01-30T10:43:02;11.20;99.90
6758;DHT22;3416;53.074;8.822;2024-01-30T10:45:30;11.20;99.90
6758;DHT22;3416;53.074;8.822;2024-01-30T10:47:59;11.30;99.90
6758;DHT22;3416;53.074;8.822;2024-01-30T10:50:27;11.40;99.90
6758;DHT22;3416;53.074;8.822;2024-01-30T10:52:54;11.40;99.90
6758;DHT22;3416;53.074;8.822;2024-01-30T10:55:22;11.40;99.90
6758;DHT22;3416;53.074;8.822;2024-01-30T10:57:51;11.50;99.90
6758;DHT22;3416;53.074;8.822;2024-01-30T11:00:19;11.60;99.90
6758;DHT22;3416;53.074;8.822;2024-01-30T11:02:49;11.80;99.90
6758;DHT22;3416;53.074;8.822;2024-01-30T11:05:24;11.90;99.90
6758;DHT22;3416;53.074;8.822;2024-01-30T11:07:52;12.10;99.90
6758;DHT22;3416;53.074;8.822;2024-01-30T11:10:19;12.20;99.90
6758;DHT22;3416;53.074;8.822;2024-01-30T11:12:47;12.30;99.90
6758;DHT22;3416;53.074;8.822;2024-01-30T11:15:17;12.40;99.90
6758;DHT22;3416;53.074;8.822;2024-01-30T11:17:50;12.30;99.90
6758;DHT22;3416;53.074;8.822;2024-01-30T11:20:20;12.30;99.90
6758;DHT22;3416;53.074;8.822;2024-01-30T11:22:50;12.20;99.90
6758;DHT22;3416;53.074;8.822;2024-01-30T11:25:19;12.10;99.90
6758;DHT22;3416;53.074;8.822;2024-01-30T11:27:49;12.30;99.90
6758;DHT22;3416;53.074;8.822;2024-01-30T11:30:26;12.30;99.90
6758;DHT22;3416;53.074;8.822;2024-01-30T11:33:05;12.50;99.90
6758;DHT22;3416;53.074;8.822;2024-01-30T11:35:36;12.40;99.90
6758;DHT22;3416;53.074;8.822;2024-01-30T11:38:04;12.40;99.90
6758;DHT22;3416;53.074;8.822;2024-01-30T11:40:32;12.40;99.90
6758;DHT22;3416;53.074;8.822;2024-01-30T11:43:01;12.40;99.90
6758;DHT22;3416;53.074;8.822;2024-01-30T11:45:30;12.40;99.90
6758;DHT22;3416;53.074;8.822;2024-01-30T11:47:57;12.60;99.90
6758;DHT22;3416;53.074;8.822;2024-01-30T11:50:26;12.60;99.90
6758;DHT22;3416;53.074;8.822;2024-01-30T11:52:54;12.70;99.90
6758;DHT22;3416;53.074;8.822;2024-01-30T11:55:22;12.40;99.90
6758;DHT22;3416;53.074;8.822;2024-01-30T11:57:49;12.20;99.90
6758;DHT22;3416;53.074;8.822;2024-01-30T12:00:18;11.90;99.90
6758;DHT22;3416;53.074;8.822;2024-01-30T12:02:51;11.80;99.90
6758;DHT22;3416;53.074;8.822;2024-01-30T12:05:21;11.70;99.90
6758;DHT22;3416;53.074;8.822;2024-01-30T12:07:48;11.70;99.90
6758;DHT22;3416;53.074;8.822;2024-01-30T12:10:15;11.60;99.90
6758;DHT22;3416;53.074;8.822;2024-01-30T12:12:45;11.60;99.90
6758;DHT22;3416;53.074;8.822;2024-01-30T12:15:12;11.70;99.90
6758;DHT22;3416;53.074;8.822;2024-01-30T12:17:40;11.70;99.90
6758;DHT22;3416;53.074;8.822;2024-01-30T12:20:10;11.70;99.90
6758;DHT22;3416;53.074;8.822;2024-01-30T12:22:38;11.80;99.90
6758;DHT22;3416;53.074;8.822;2024-01-30T12:25:07;11.80;99.90
6758;DHT22;3416;53.074;8.822;2024-01-30T12:27:34;11.80;99.90
6758;DHT22;3416;53.074;8.822;2024-01-30T12:30:04;11.70;99.90
6758;DHT22;3416;53.074;8.822;2024-01-30T12:32:31;11.70;99.90
6758;DHT22;3416;53.074;8.822;2024-01-30T12:34:59;11.80;99.90
6758;DHT22;3416;53.074;8.822;2024-01-30T12:37:27;11.80;99.90
6758;DHT22;3416;53.074;8.822;2024-01-30T12:39:56;11.80;99.90
6758;DHT22;3416;53.074;8.822;2024-01-30T12:42:23;11.80;99.90
6758;DHT22;3416;53.074;8.822;2024-01-30T12:44:50;11.90;99.90
6758;DHT22;3416;53.074;8.822;2024-01-30T12:47:17;12.00;99.90
6758;DHT22;3416;53.074;8.822;2024-01-30T12:49:44;11.90;99.90
6758;DHT22;3416;53.074;8.822;2024-01-30T12:52:12;11.90;99.90
6758;DHT22;3416;53.074;8.822;2024-01-30T12:54:42;11.90;99.90
6758;DHT22;3416;53.074;8.822;2024-01-30T12:57:09;11.90;99.90
6758;DHT22;3416;53.074;8.822;2024-01-30T12:59:40;12.00;99.90
6758;DHT22;3416;53.074;8.822;2024-01-30T13:02:07;12.00;99.90
6758;DHT22;3416;53.074;8.822;2024-01-30T13:04:35;12.10;99.90
6758;DHT22;3416;53.074;8.822;2024-01-30T13:07:02;12.10;99.90
6758;DHT22;3416;53.074;8.822;2024-01-30T13:09:31;12.20;99.90
6758;DHT22;3416;53.074;8.822;2024-01-30T13:11:59;12.20;99.90
6758;DHT22;3416;53.074;8.822;2024-01-30T13:14:26;12.10;99.90
6758;DHT22;3416;53.074;8.822;2024-01-30T13:16:53;12.00;99.90
6758;DHT22;3416;53.074;8.822;2024-01-30T13:19:20;12.10;99.90
6758;DHT22;3416;53.074;8.822;2024-01-30T13:21:47;12.10;99.90
6758;DHT22;3416;53.074;8.822;2024-01-30T13:24:14;12.20;99.90
6758;DHT22;3416;53.074;8.822;2024-01-30T13:26:42;12.20;99.90
6758;DHT22;3416;53.074;8.822;2024-01-30T13:29:11;12.40;99.90
6758;DHT22;3416;53.074;8.822;2024-01-30T13:31:38;12.30;99.90
6758;DHT22;3416;53.074;8.822;2024-01-30T13:34:06;12.30;99.90
6758;DHT22;3416;53.074;8.822;2024-01-30T13:36:33;12.30;99.90
6758;DHT22;3416;53.074;8.822;2024-01-30T13:39:00;12.20;99.90
6758;DHT22;3416;53.074;8.822;2024-01-30T13:41:27;12.10;99.90
6758;DHT22;3416;53.074;8.822;2024-01-30T13:43:55;12.20;99.90
6758;DHT22;3416;53.074;8.822;2024-01-30T13:46:24;12.20;99.90
6758;DHT22;3416;53.074;8.822;2024-01-30T13:48:51;12.10;99.90
6758;DHT22;3416;53.074;8.822;2024-01-30T13:51:18;12.10;99.90
6758;DHT22;3416;53.074;8.822;2024-01-30T13:53:46;12.00;99.90
6758;DHT22;3416;53.074;8.822;2024-01-30T13:56:13;12.00;99.90
6758;DHT22;3416;53.074;8.822;2024-01-30T13:58:40;11.90;99.90
6758;DHT22;3416;53.074;8.822;2024-01-30T14:01:07;11.90;99.90
6758;DHT22;3416;53.074;8.822;2024-01-30T14:03:36;11.90;99.90
6758;DHT22;3416;53.074;8.822;2024-01-30T14:06:04;11.90;99.90
6758;DHT22;3416;53.074;8.822;2024-01-30T14:08:32;12.00;99.90
6758;DHT22;3416;53.074;8.822;2024-01-30T14:10:59;12.00;99.90
6758;DHT22;3416;53.074;8.822;2024-01-30T14:13:26;11.90;99.90
6758;DHT22;3416;53.074;8.822;2024-01-30T14:15:53;11.90;99.90
6758;DHT22;3416;53.074;8.822;2024-01-30T14:18:20;11.90;99.90
6758;DHT22;3416;53.074;8.822;2024-01-30T14:20:48;11.90;99.90
6758;DHT22;3416;53.074;8.822;2024-01-30T14:23:17;11.90;99.90
6758;DHT22;3416;53.074;8.822;2024-01-30T14:25:44;11.90;99.90
6758;DHT22;3416;53.074;8.822;2024-01-30T14:28:11;11.90;99.90
6758;DHT22;3416;53.074;8.822;2024-01-30T14:30:38;11.80;99.90
6758;DHT22;3416;53.074;8.822;2024-01-30T14:33:05;11.90;99.90
6758;DHT22;3416;53.074;8.822;2024-01-30T14:35:34;12.00;99.90
6758;DHT22;3416;53.074;8.822;2024-01-30T14:38:02;12.10;99.90
6758;DHT22;3416;53.074;8.822;2024-01-30T14:40:30;12.10;99.90
6758;DHT22;3416;53.074;8.822;2024-01-30T14:42:57;12.00;99.90
6758;DHT22;3416;53.074;8.822;2024-01-30T14:45:24;12.20;99.90
6758;DHT22;3416;53.074;8.822;2024-01-30T14:47:51;12.10;99.90
6758;DHT22;3416;53.074;8.822;2024-01-30T14:50:19;12.10;99.90
6758;DHT22;3416;53.074;8.822;2024-01-30T14:52:46;12.10;99.90
6758;DHT22;3416;53.074;8.822;2024-01-30T14:55:15;12.20;99.90
6758;DHT22;3416;53.074;8.822;2024-01-30T14:57:42;12.10;99.90
6758;DHT22;3416;53.074;8.822;2024-01-30T15:00:11;12.00;99.90
6758;DHT22;3416;53.074;8.822;2024-01-30T15:02:39;11.90;99.90
6758;DHT22;3416;53.074;8.822;2024-01-30T15:05:06;11.90;99.90
6758;DHT22;3416;53.074;8.822;2024-01-30T15:07:36;11.90;99.90
6758;DHT22;3416;53.074;8.822;2024-01-30T15:10:07;11.80;99.90
6758;DHT22;3416;53.074;8.822;2024-01-30T15:12:36;11.80;99.90
6758;DHT22;3416;53.074;8.822;2024-01-30T15:15:04;11.80;99.90
6758;DHT22;3416;53.074;8.822;2024-01-30T15:17:31;11.90;99.90
6758;DHT22;3416;53.074;8.822;2024-01-30T15:19:58;11.90;99.90
6758;DHT22;3416;53.074;8.822;2024-01-30T15:22:26;11.90;99.90
6758;DHT22;3416;53.074;8.822;2024-01-30T15:24:52;11.90;99.90
6758;DHT22;3416;53.074;8.822;2024-01-30T15:27:19;12.00;99.90
6758;DHT22;3416;53.074;8.822;2024-01-30T15:29:49;11.90;99.90
6758;DHT22;3416;53.074;8.822;2024-01-30T15:32:16;12.00;99.90
6758;DHT22;3416;53.074;8.822;2024-01-30T15:34:43;12.10;99.90
6758;DHT22;3416;53.074;8.822;2024-01-30T15:37:10;12.20;99.90
6758;DHT22;3416;53.074;8.822;2024-01-30T15:39:37;12.10;99.90
6758;DHT22;3416;53.074;8.822;2024-01-30T15:42:05;12.10;99.90
6758;DHT22;3416;53.074;8.822;2024-01-30T15:44:33;12.10;99.90
6758;DHT22;3416;53.074;8.822;2024-01-30T15:47:01;12.20;99.90
6758;DHT22;3416;53.074;8.822;2024-01-30T15:49:28;12.20;99.90
6758;DHT22;3416;53.074;8.822;2024-01-30T15:51:55;12.10;99.90
6758;DHT22;3416;53.074;8.822;2024-01-30T15:54:22;12.20;99.90
6758;DHT22;3416;53.074;8.822;2024-01-30T15:56:49;12.10;99.90
6758;DHT22;3416;53.074;8.822;2024-01-30T15:59:18;12.00;99.90
6758;DHT22;3416;53.074;8.822;2024-01-30T16:01:45;12.10;99.90
6758;DHT22;3416;53.074;8.822;2024-01-30T16:04:16;12.10;99.90
6758;DHT22;3416;53.074;8.822;2024-01-30T16:06:43;12.00;99.90
6758;DHT22;3416;53.074;8.822;2024-01-30T16:09:10;12.00;99.90
6758;DHT22;3416;53.074;8.822;2024-01-30T16:11:37;12.00;99.90
6758;DHT22;3416;53.074;8.822;2024-01-30T16:14:04;12.00;99.90